createdAt,value
2022-09-28T00:01:53.069Z,82.22
2022-09-28T00:08:54.936Z,82.80
2022-09-28T00:16:07.477Z,81.73
2022-09-28T00:23:09.095Z,83.74
2022-09-28T00:30:10.714Z,83.80
2022-09-28T00:37:13.118Z,84.85
2022-09-28T00:44:26.827Z,83.23
2022-09-28T00:51:28.448Z,81.90
2022-09-28T00:58:31.564Z,81.59
2022-09-28T01:05:33.869Z,81.39
2022-09-28T01:12:35.626Z,81.97
2022-09-28T01:19:46.508Z,81.66
2022-09-28T01:27:20.354Z,81.82
2022-09-28T01:34:36.281Z,80.75
2022-09-28T01:41:40.000Z,80.45
2022-09-28T01:48:53.599Z,80.08
2022-09-28T01:55:57.828Z,80.58
2022-09-28T02:03:07.869Z,80.52
2022-09-28T02:10:19.898Z,79.86
2022-09-28T02:17:21.467Z,80.21
2022-09-28T02:24:46.127Z,80.49
2022-09-28T02:31:55.028Z,80.28
2022-09-28T02:38:57.217Z,80.18
2022-09-28T02:46:06.639Z,80.94
2022-09-28T02:53:39.640Z,81.29
2022-09-28T03:00:51.418Z,80.92
2022-09-28T03:07:57.546Z,81.60
2022-09-28T03:15:26.675Z,81.64
2022-09-28T03:22:29.664Z,82.06
2022-09-28T03:29:33.035Z,81.98
2022-09-28T03:36:39.675Z,82.12
2022-09-28T03:43:41.326Z,82.62
2022-09-28T03:50:43.094Z,82.88
2022-09-28T03:57:44.779Z,82.75
2022-09-28T04:04:46.387Z,83.22
2022-09-28T04:12:03.218Z,83.57
2022-09-28T04:19:07.710Z,83.61
2022-09-28T04:26:25.433Z,83.95
2022-09-28T04:33:27.055Z,83.97
2022-09-28T04:40:29.015Z,84.22
2022-09-28T04:47:30.802Z,84.49
2022-09-28T04:54:51.073Z,84.92
2022-09-28T05:01:54.046Z,84.73
2022-09-28T05:09:14.818Z,84.53
2022-09-28T05:16:17.024Z,83.86
2022-09-28T05:23:45.707Z,83.94
2022-09-28T05:30:47.640Z,83.76
2022-09-28T05:38:04.383Z,84.46
2022-09-28T05:45:06.506Z,84.10
2022-09-28T05:52:08.543Z,84.39
2022-09-28T05:59:13.418Z,83.85
2022-09-28T06:06:16.125Z,83.19
2022-09-28T06:13:19.932Z,83.75
2022-09-28T06:20:21.634Z,83.14
2022-09-28T06:27:43.199Z,83.35
2022-09-28T06:34:45.368Z,83.17
2022-09-28T06:41:47.872Z,83.00
2022-09-28T06:48:52.837Z,82.75
2022-09-28T06:56:10.322Z,82.54
2022-09-28T07:03:17.357Z,82.36
2022-09-28T07:10:33.590Z,81.21
2022-09-28T07:18:02.416Z,80.49
2022-09-28T07:25:06.709Z,78.51
2022-09-28T07:32:26.893Z,75.88
2022-09-28T07:40:07.895Z,72.45
2022-09-28T07:47:12.593Z,70.51
2022-09-28T07:54:52.066Z,69.50
2022-09-28T08:02:20.203Z,68.39
2022-09-28T08:09:22.168Z,66.61
2022-09-28T08:16:47.491Z,66.62
2022-09-28T08:24:12.828Z,67.19
2022-09-28T08:31:14.661Z,67.74
2022-09-28T08:38:36.256Z,67.87
2022-09-28T08:46:10.338Z,68.20
2022-09-28T08:53:52.542Z,68.29
2022-09-28T09:00:59.187Z,67.89
2022-09-28T09:08:09.036Z,67.25
2022-09-28T09:15:32.861Z,65.54
2022-09-28T09:22:59.800Z,65.43
2022-09-28T09:30:20.206Z,63.90
2022-09-28T09:37:35.690Z,60.27
2022-09-28T09:45:14.090Z,58.38
2022-09-28T09:52:57.778Z,52.58
2022-09-28T09:59:59.558Z,48.98
2022-09-28T10:07:50.324Z,47.03
2022-09-28T10:14:52.403Z,41.59
2022-09-28T10:21:54.418Z,42.36
2022-09-28T10:29:01.707Z,42.59
2022-09-28T10:36:05.072Z,44.51
2022-09-28T10:43:16.334Z,45.28
2022-09-28T10:50:22.739Z,43.52
2022-09-28T10:57:36.804Z,41.58
2022-09-28T11:04:42.928Z,41.64
2022-09-28T11:11:44.614Z,41.09
2022-09-28T11:18:46.312Z,42.20
2022-09-28T11:25:58.993Z,43.85
2022-09-28T11:33:06.995Z,44.39
2022-09-28T11:40:43.255Z,42.74
2022-09-28T11:48:08.084Z,40.76
2022-09-28T11:55:33.666Z,40.73
2022-09-28T12:02:39.588Z,41.01
2022-09-28T12:09:50.475Z,42.00
2022-09-28T12:17:06.677Z,42.51
2022-09-28T12:24:33.564Z,42.34
2022-09-28T12:31:59.623Z,41.71
2022-09-28T12:39:40.883Z,43.74
2022-09-28T12:47:09.569Z,43.26
2022-09-28T12:54:36.680Z,43.97
2022-09-28T13:02:14.839Z,43.88
2022-09-28T13:09:26.221Z,45.30
2022-09-28T13:16:34.103Z,45.66
2022-09-28T13:23:39.205Z,45.56
2022-09-28T13:30:40.852Z,45.71
2022-09-28T13:37:42.573Z,44.34
2022-09-28T13:45:05.551Z,45.36
2022-09-28T13:52:13.644Z,44.50
2022-09-28T13:59:23.142Z,45.33
2022-09-28T14:06:31.698Z,45.72
2022-09-28T14:13:42.603Z,45.67
2022-09-28T14:21:09.206Z,46.58
2022-09-28T14:28:23.336Z,45.15
2022-09-28T14:35:38.671Z,45.39
2022-09-28T14:42:40.314Z,45.11
2022-09-28T14:49:45.547Z,45.84
2022-09-28T14:56:53.073Z,46.55
2022-09-28T15:03:55.749Z,48.14
2022-09-28T15:10:57.388Z,49.70
2022-09-28T15:18:33.221Z,50.45
2022-09-28T15:25:35.852Z,51.34
2022-09-28T15:32:37.450Z,52.18
2022-09-28T15:39:39.032Z,53.01
2022-09-28T15:46:42.412Z,54.31
2022-09-28T15:54:00.985Z,54.84
2022-09-28T16:01:35.745Z,55.64
2022-09-28T16:08:48.786Z,57.70
2022-09-28T16:15:58.785Z,60.02
2022-09-28T16:23:05.981Z,62.00
2022-09-28T16:30:21.578Z,59.98
2022-09-28T16:37:31.559Z,59.72
2022-09-28T16:44:35.862Z,60.56
2022-09-28T16:51:40.023Z,61.89
2022-09-28T16:58:42.427Z,63.42
2022-09-28T17:05:44.114Z,64.25
2022-09-28T17:12:45.930Z,64.64
2022-09-28T17:19:47.539Z,65.45
2022-09-28T17:26:49.762Z,66.21
2022-09-28T17:33:52.059Z,66.33
2022-09-28T17:40:53.680Z,67.06
2022-09-28T17:47:55.544Z,67.25
2022-09-28T17:54:57.089Z,67.75
2022-09-28T18:02:02.155Z,68.37
2022-09-28T18:09:04.396Z,68.06
2022-09-28T18:16:06.398Z,67.83
2022-09-28T18:23:08.017Z,67.28
2022-09-28T18:30:09.798Z,67.16
2022-09-28T18:37:11.390Z,67.34
2022-09-28T18:44:12.944Z,67.42
2022-09-28T18:51:14.547Z,68.12
2022-09-28T18:58:16.114Z,68.66
2022-09-28T19:05:18.739Z,70.17
2022-09-28T19:12:20.325Z,70.98
2022-09-28T19:19:21.967Z,71.30
2022-09-28T19:26:25.359Z,71.51
2022-09-28T19:33:27.089Z,71.88
2022-09-28T19:40:28.657Z,72.79
2022-09-28T19:47:30.467Z,73.56
2022-09-28T19:54:36.518Z,73.72
2022-09-28T20:01:38.565Z,74.38
2022-09-28T20:08:42.618Z,74.44
2022-09-28T20:15:45.724Z,74.70
2022-09-28T20:22:47.343Z,75.00
2022-09-28T20:29:48.961Z,74.95
2022-09-28T20:36:50.620Z,75.46
2022-09-28T20:43:53.541Z,76.17
2022-09-28T20:50:59.697Z,77.04
2022-09-28T20:58:04.437Z,78.16
2022-09-28T21:05:06.812Z,78.41
2022-09-28T21:12:09.120Z,79.76
2022-09-28T21:19:11.099Z,79.76
2022-09-28T21:26:29.031Z,80.51
2022-09-28T21:33:31.118Z,80.27
2022-09-28T21:40:32.775Z,80.96
2022-09-28T21:47:34.352Z,80.62
2022-09-28T21:54:37.269Z,80.29
2022-09-28T22:01:42.507Z,80.28
2022-09-28T22:08:44.605Z,80.35
2022-09-28T22:15:52.721Z,80.21
2022-09-28T22:22:54.300Z,80.15
2022-09-28T22:29:55.841Z,80.36
2022-09-28T22:37:02.883Z,80.01
2022-09-28T22:44:04.500Z,80.14
2022-09-28T22:51:06.485Z,80.10
2022-09-28T22:58:08.056Z,80.24
2022-09-28T23:05:10.312Z,80.15
2022-09-28T23:12:11.855Z,80.57
2022-09-28T23:19:13.429Z,80.63
2022-09-28T23:26:23.781Z,80.45
2022-09-28T23:33:25.367Z,80.14
2022-09-28T23:40:27.004Z,80.30
2022-09-28T23:47:28.599Z,80.60
2022-09-28T23:54:30.148Z,80.78
